• Join FlightAware (Why Join?)
  • Login
  • US Flag 
01:09AM EDT


 

Airport Tracker/Info


-or-


 

Live Flight TrackerFlight Track Log ✈ SWA1729 ✈ 13-Apr-2013 ✈ KSLC - KLAS

Flight Track Log - Related Links

Times and Time Zones

All times are in EDT time to prevent confusion due to time zone crossing. See the SWA1729 flight status page for this flight to view local times or setup timezone preferences in your user account.

Time Position Orientation Groundspeed Altitude Reporting Facility
EDT Latitude Longitude Course Direction KTS MPH feet Rate Location/Type
09:42AM 40.7758 -111.9983 175° South 149 171 5,100  Level Salt Lake Center
09:44AM 40.7031 -111.9892 175° South 229 264 7,400 2,580 Climbing Salt Lake Center
09:45AM 40.6225 -111.9761 173° South 268 308 11,300 3,180 Climbing Salt Lake Center
09:46AM 40.5308 -111.9600 172° South 336 387 14,000 2,760 Climbing Salt Lake Center
09:47AM 40.4336 -111.9492 175° South 354 407 17,000 2,940 Climbing Salt Lake Center
09:48AM 40.3297 -111.9428 177° South 375 432 20,000 2,640 Climbing Salt Lake Center
09:49AM 40.2208 -111.9447 181° South 390 449 22,400 2,400 Climbing Salt Lake Center
09:50AM 40.1108 -111.9636 187° South 400 460 24,900 2,160 Climbing Salt Lake Center
09:51AM 39.9961 -111.9797 186° South 414 476 26,900 2,160 Climbing Salt Lake Center
09:52AM 39.8756 -111.9972 186° South 437 503 29,300 1,980 Climbing Salt Lake Center
09:53AM 39.7564 -112.0150 187° South 430 495 31,000 1,080 Climbing Salt Lake Center
09:54AM 39.6364 -112.0339 187° South 433 498 31,600 480 Climbing Salt Lake Center
09:55AM 39.5144 -112.0517 186° South 439 505 32,000 180 Climbing Salt Lake Center
09:56AM 39.3933 -112.0689 186° South 437 503 32,000  Level Salt Lake Center
09:57AM 39.2728 -112.0861 186° South 437 503 32,000  Level Salt Lake Center
09:58AM 39.1431 -112.1050 186° South 435 501 32,000  Level Salt Lake Center
09:59AM 39.0203 -112.1233 187° South 442 509 32,000  Level Salt Lake Center
10:00AM 38.9219 -112.2039 213° Southwest 419 482 32,000  Level Salt Lake Center
10:01AM 38.8242 -112.2844 213° Southwest 418 481 32,000  Level Salt Lake Center
10:02AM 38.7058 -112.3817 213° Southwest 421 484 32,000  Level Salt Lake Center
10:03AM 38.6078 -112.4633 213° Southwest 423 487 32,000  Level Salt Lake Center
10:04AM 38.5089 -112.5456 213° Southwest 424 488 32,000  Level Salt Lake Center
10:05AM 38.4103 -112.6264 213° Southwest 423 487 32,000  Level Salt Lake Center
10:06AM 38.3119 -112.7072 213° Southwest 423 487 32,000  Level Salt Lake Center
10:07AM 38.2128 -112.7861 212° Southwest 422 486 32,000  Level Salt Lake Center
10:08AM 38.1153 -112.8669 213° Southwest 420 483 32,000  Level Salt Lake Center
10:09AM 38.0164 -112.9472 213° Southwest 422 486 32,000  Level Salt Lake Center
10:10AM 37.9175 -113.0272 213° Southwest 424 488 32,000  Level Salt Lake Center
10:11AM 37.7983 -113.1222 212° Southwest 426 490 32,000  Level Salt Lake Center
10:12AM 37.6989 -113.2019 212° Southwest 428 493 32,000  Level Salt Lake Center
10:13AM 37.6011 -113.2803 212° Southwest 423 487 32,000  Level Salt Lake Center
10:14AM 37.5025 -113.3581 212° Southwest 421 484 32,000  Level Salt Lake Center
10:15AM 37.4028 -113.4367 212° Southwest 425 489 32,000  Level Salt Lake Center
10:16AM 37.3206 -113.5003 212° Southwest 431 496 32,000  Level Los Angeles Center
10:17AM 37.2192 -113.5803 212° Southwest 433 498 32,000 -900 Level Los Angeles Center
10:18AM 37.1194 -113.6589 212° Southwest 426 490 30,200 -1,860 Descending Los Angeles Center
10:19AM 37.0231 -113.7350 212° Southwest 414 476 28,300 -1,920 Descending Los Angeles Center
10:20AM 36.9292 -113.8094 212° Southwest 403 464 26,300 -1,920 Descending Los Angeles Center
10:21AM 36.8361 -113.8800 211° Southwest 394 453 24,400 -1,860 Descending Los Angeles Center
10:22AM 36.7458 -113.9508 212° Southwest 386 444 22,500 -1,860 Descending Los Angeles Center
10:23AM 36.6592 -114.0178 212° Southwest 371 427 20,700 -1,920 Descending Los Angeles Center
10:24AM 36.5650 -114.1044 216° Southwest 352 405 18,600 -1,980 Descending Los Angeles Center
10:25AM 36.5219 -114.2033 242° Southwest 327 376 16,700 -1,800 Descending Los Angeles Center
10:26AM 36.4800 -114.2939 240° Southwest 318 366 15,000 -1,740 Descending Los Angeles Center
10:27AM 36.4650 -114.3325 244° Southwest 310 357 14,400 -1,560 Descending Los Angeles Center
10:27AM 36.4375 -114.3861 237° Southwest 310 357 13,400 -1,680 Descending Los Angeles Center
10:28AM 36.4228 -114.4247 245° Southwest 304 350 12,700 -1,380 Descending Los Angeles Center
10:28AM 36.3958 -114.4750 236° Southwest 299 344 12,000 -840 Descending Los Angeles Center
10:29AM 36.3658 -114.4897 202° Southwest 299 344 11,900 -780 Descending Los Angeles Center
10:29AM 36.3142 -114.4878 178° South 292 336 11,200 -1,320 Descending Los Angeles Center
10:30AM 36.2778 -114.4928 186° South 294 338 10,600 -1,200 Descending Los Angeles Center
10:30AM 36.2322 -114.4906 178° South 292 336 10,000 -1,140 Descending Los Angeles Center
10:31AM 36.1978 -114.4933 184° South 289 333 9,500 -1,080 Descending Los Angeles Center
10:31AM 36.1533 -114.4911 178° South 283 326 8,900 -1,140 Descending Los Angeles Center
10:32AM 36.1225 -114.4947 185° South 280 322 8,400 -900 Descending Los Angeles Center
10:32AM 36.0900 -114.5472 233° Southwest 266 306 8,000 -420 Descending Los Angeles Center
10:33AM 36.0881 -114.5731 265° West 266 306 8,000  Level Los Angeles Center
10:33AM 36.0833 -114.6342 265° West 258 297 8,000  Level Los Angeles Center
10:34AM 36.0747 -114.7108 262° West 237 273 8,000 -120 Level Los Angeles Center
10:35AM 36.0736 -114.7431 268° West 227 261 7,900 -780 Descending Los Angeles Center
10:36AM 36.0747 -114.7961 271° West 230 265 7,200 -960 Descending Los Angeles Center
10:37AM 36.0739 -114.8708 269° West 218 251 6,300 -780 Descending Los Angeles Center
10:38AM 36.0733 -114.9375 269° West 181 208 5,700 -960 Descending Los Angeles Center
10:39AM 36.0747 -114.9931 272° West 169 194 4,400 -1,260 Descending Los Angeles Center
10:40AM 36.0733 -115.0467 268° West 159 183 3,200 -960 Descending Los Angeles Center
10:41AM 36.0736 -115.0972 270° West 134 154 2,500 -600 Descending Los Angeles Center
10:42AM 36.0733 -115.1344 269° West 143 165 2,000 -480 Descending Los Angeles Center
10:44AM 36.0667 -115.1500 219° Southwest  Level FlightAware Approximate